Hauptseite
METAR-TAF:

METAR-TAF

Flughäfen :

Flughafen Niamey

Niamey, Niger

Breite: 13-29N, Länge: 002-10E, Höhe: 223 m

Beobachtung

Neuester Wetterbericht von vor 46 Minuten, um 23:00 UTC
Wind 5 kt aus Ost/Nordost
Temperatur 27°C
Luftfeuchtigkeit 12%
Luftdruck 1015 hPa
Sichtweite: 7000 m

METAR: DRRN 232300Z 07005KT 7000 NSC 27/M05 Q1015 NOSIG

Zeit: 00:46 (23:46 UTC)

Prognose

Neuester Wetterbericht von vor 46 Minuten, um 23:00 UTC
Gültige Prognose vom 24 um 00 UTC bis 25 um 06 UTC
Wind 5 kt aus Ost/Nordost
Sichtweite: 8000 m
Übergehend zu
vom 24 um 00 UTC bis 24 um 02 UTC
Sichtweite: 3500 m
verbreitet Staub
Übergehend zu
vom 24 um 08 UTC bis 24 um 09 UTC
Wind 15 kt aus Ost
Zeitweise
vom 24 um 09 UTC bis 24 um 12 UTC
Wind 25 kt aus Ost
Sichtweite: 2000 m
Staubtreiben

TAF: DRRN 232300Z 2400/2506 06005KT 8000 NSC BECMG 2400/2402 3500 DU BECMG 2408/2409 09015KT TEMPO 2409/2412 10025KT 2000 BLDU

Wetterbeobachtungen und Prognosen von mehr als 4000 Flughäfen (METAR und TAF Bericht).

Die verfügbaren Stationen werden durch gelbe und rote Markierungen auf der Karte dargestellt.

Führen Sie die Maus auf sie, um den Namen der Station zu sehen.

Darauf klicken, um die Beobachtung von Wetterbeobachtungen und Prognosen zu sehen.

Um die Karte zu ändern : klicken Sie auf den grünen Tasten mit einem schwarzen Kreuz Zum Vergrößern, auf den grünen Button mit einem Gedankenstrich zu verkleinern, oder auf die grünen Pfeile für benachbarte Karten.


METAR-TAF: